Time;durP1;ratioP1;P1;durP2;ratioP2;P2;SDS_P1;SDS_P2;PMS_P1;PMS_P2;Temp;Humidity;BMP_temperature;BMP_pressure;BME280_temperature;BME280_humidity;BME280_pressure;Samples;Min_cycle;Max_cycle;Signal;HPM_P1;HPM_P2
2022/08/05 10:23:31;;;;;;;3.10;0.60;;;;;;;19.13;82.04;101110.16;5409127;23;20079;-81
2022/08/05 10:26:00;;;;;;;2.65;0.63;;;;;;;16.47;80.20;100658.16;4920761;28;20048;-81
2022/08/05 10:28:32;;;;;;;2.75;0.60;;;;;;;19.35;78.32;101107.50;4921771;28;20031;-81
2022/08/05 10:31:09;;;;;;;4.13;0.80;;;;;;;16.76;77.50;100710.63;4922564;28;20020;-80
2022/08/05 10:38:47;;;;;;;3.40;0.60;;;;;;;19.16;75.21;101105.00;5745621;23;21000;-77
2022/08/05 10:41:50;;;;;;;2.70;0.50;;;;;;;17.60;75.35;100854.94;4868809;29;20037;-81
2022/08/05 11:07:33;;;;;;;3.15;0.50;;;;;;;18.33;72.43;100895.97;5500880;23;20060;-82
2022/08/05 11:10:01;;;;;;;3.50;0.60;;;;;;;18.82;73.15;100994.31;4931772;29;20030;-80
2022/08/05 11:12:37;;;;;;;3.67;0.60;;;;;;;19.60;72.59;101115.22;4930296;29;20027;-80
2022/08/05 11:15:14;;;;;;;4.72;0.73;;;;;;;19.37;73.43;101113.50;4932736;29;20054;-82
2022/08/05 11:17:40;;;;;;;2.45;0.60;;;;;;;19.37;74.43;101110.78;4928433;29;20083;-82
2022/08/05 11:20:27;;;;;;;5.95;0.60;;;;;;;19.28;73.80;101117.75;4929053;29;20036;-81
2022/08/05 11:22:52;;;;;;;3.50;0.85;;;;;;;19.34;74.22;101112.13;4927889;29;20055;-82
2022/08/05 11:25:42;;;;;;;2.05;0.50;;;;;;;19.43;75.35;101118.78;4924399;29;20040;-80
2022/08/05 11:28:11;;;;;;;3.55;0.60;;;;;;;19.40;73.08;101122.06;4929342;29;20024;-81
2022/08/05 11:30:54;;;;;;;1.92;0.52;;;;;;;19.32;72.90;101121.63;4932591;29;20403;-81
2022/08/05 11:33:34;;;;;;;1.85;0.60;;;;;;;19.31;74.44;101131.72;4931515;29;20024;-81
2022/08/05 11:36:02;;;;;;;2.65;0.65;;;;;;;19.22;71.68;101125.84;4918582;29;20069;-81
2022/08/05 11:38:43;;;;;;;1.95;0.68;;;;;;;19.15;70.02;101117.00;4924843;29;20035;-81
2022/08/05 11:41:20;;;;;;;2.35;0.60;;;;;;;19.09;72.44;101104.38;4912216;29;20040;-80
2022/08/05 11:44:11;;;;;;;4.65;1.38;;;;;;;19.40;72.99;101115.75;4912730;29;20466;-82
2022/08/05 11:46:41;;;;;;;4.57;1.33;;;;;;;19.34;72.27;101130.41;4924345;29;20024;-81
2022/08/05 11:49:10;;;;;;;3.60;0.60;;;;;;;19.32;71.35;101124.38;4932915;29;20031;-81
2022/08/05 11:51:36;;;;;;;4.03;0.85;;;;;;;19.02;72.56;101081.88;4934534;29;20451;-82
2022/08/05 11:54:01;;;;;;;2.53;0.70;;;;;;;18.68;72.93;101026.50;4936965;29;20032;-81
2022/08/05 11:56:47;;;;;;;3.97;0.50;;;;;;;19.66;72.37;101145.09;4937603;29;20044;-81
2022/08/05 11:59:18;;;;;;;6.40;0.82;;;;;;;17.74;70.53;100845.41;5182641;23;20665;-82
2022/08/05 12:02:07;;;;;;;2.92;0.52;;;;;;;17.26;72.40;100795.03;4929411;29;20042;-83
2022/08/05 12:04:47;;;;;;;3.47;0.88;;;;;;;17.05;72.37;100771.22;4928740;29;20025;-82
2022/08/05 12:07:16;;;;;;;3.03;0.57;;;;;;;17.64;73.15;100864.25;4937627;28;20020;-84
2022/08/05 12:09:52;;;;;;;3.40;0.70;;;;;;;17.61;71.73;100838.41;4936264;29;20048;-81
2022/08/05 12:12:22;;;;;;;4.43;0.73;;;;;;;17.36;70.16;100797.94;4938741;29;20034;-82
2022/08/05 12:14:48;;;;;;;5.35;0.60;;;;;;;18.75;70.71;101005.41;4941999;29;20020;-82
2022/08/05 12:17:14;;;;;;;1.90;0.45;;;;;;;19.75;69.62;101181.00;4937574;29;20035;-82
2022/08/05 12:19:52;;;;;;;4.22;0.80;;;;;;;18.23;69.55;100948.38;4944661;29;20080;-81
2022/08/05 12:22:26;;;;;;;2.00;0.50;;;;;;;19.70;70.42;101164.53;4929672;29;20053;-81
2022/08/05 12:24:51;;;;;;;2.58;0.80;;;;;;;19.59;68.58;101166.25;4917084;29;20032;-80
2022/08/05 12:27:26;;;;;;;3.70;0.60;;;;;;;19.59;68.64;101158.06;4928844;29;20040;-81
2022/08/05 12:30:01;;;;;;;3.97;0.70;;;;;;;19.39;68.68;101158.59;4944066;29;20052;-81
2022/08/05 12:46:00;;;;;;;4.15;0.60;;;;;;;17.02;70.22;100785.31;5221973;23;20047;-83
2022/08/05 13:53:17;;;;;;;3.05;0.80;;;;;;;17.46;73.90;100851.72;5475498;23;20040;-82
2022/08/05 15:54:10;;;;;;;4.57;0.80;;;;;;;19.61;66.78;101125.88;5813497;23;25104;-82
2022/08/05 15:59:10;;;;;;;6.45;1.13;;;;;;;17.23;66.75;100811.84;5750181;23;20040;-78
